Time;durP1;ratioP1;P1;durP2;ratioP2;P2;SDS_P1;SDS_P2;PMS_P1;PMS_P2;Temp;Humidity;BMP_temperature;BMP_pressure;BME280_temperature;BME280_humidity;BME280_pressure;Samples;Min_cycle;Max_cycle;Signal;HPM_P1;HPM_P2
2021/10/11 10:59:56;;;;;;;10.57;2.50;;;16.20;99.90;;;;;;14853657;22;2125864;-65
2021/10/11 11:05:43;;;;;;;9.82;2.08;;;16.20;99.90;;;;;;14817296;23;20024;-64
2021/10/11 11:11:31;;;;;;;8.82;2.40;;;16.00;99.90;;;;;;14830860;23;20035;-66
2021/10/11 11:17:28;;;;;;;9.80;2.33;;;16.30;99.90;;;;;;14836069;23;20024;-66
2021/10/11 11:23:19;;;;;;;5.70;2.00;;;16.40;99.90;;;;;;14831277;23;20040;-66
2021/10/11 11:29:06;;;;;;;9.80;2.80;;;16.50;99.90;;;;;;14828929;23;20028;-66
2021/10/11 11:34:55;;;;;;;9.13;2.30;;;16.90;99.90;;;;;;14834832;23;20078;-66
2021/10/11 11:40:43;;;;;;;13.88;2.60;;;16.80;99.90;;;;;;14859538;23;20115;-66
2021/10/11 11:46:30;;;;;;;7.82;2.10;;;16.60;99.90;;;;;;14857322;23;20353;-66
2021/10/11 11:52:19;;;;;;;8.00;1.80;;;17.00;99.90;;;;;;14857329;23;20028;-66
2021/10/11 11:58:13;;;;;;;6.18;2.38;;;17.50;99.90;;;;;;14856151;23;20411;-66
2021/10/11 12:04:02;;;;;;;7.22;2.17;;;17.80;99.90;;;;;;14840800;23;20023;-65
2021/10/11 12:09:50;;;;;;;9.52;2.40;;;18.00;99.90;;;;;;14857727;23;20022;-64
2021/10/11 12:15:37;;;;;;;6.35;2.30;;;18.00;99.90;;;;;;14856366;22;20035;-64
2021/10/11 12:21:27;;;;;;;6.85;2.60;;;18.00;99.90;;;;;;14856960;23;20028;-64
2021/10/11 12:27:15;;;;;;;10.70;2.60;;;17.70;99.90;;;;;;14856476;23;20020;-63
2021/10/11 12:33:10;;;;;;;5.35;1.92;;;17.50;99.90;;;;;;14855990;22;20020;-64
2021/10/11 12:39:09;;;;;;;8.57;2.42;;;17.50;99.90;;;;;;14856015;23;20492;-64
2021/10/11 12:45:02;;;;;;;8.75;2.63;;;17.50;99.90;;;;;;14856062;23;20413;-64
2021/10/11 12:50:53;;;;;;;11.10;2.80;;;17.60;99.90;;;;;;14856387;23;20034;-65
2021/10/11 12:56:48;;;;;;;11.02;2.53;;;17.90;99.90;;;;;;14853645;23;20024;-66
2021/10/11 13:02:38;;;;;;;12.05;2.63;;;17.90;99.90;;;;;;14824396;23;20370;-65
2021/10/11 13:08:25;;;;;;;10.38;2.88;;;17.80;99.90;;;;;;14827225;23;20077;-66
2021/10/11 13:14:12;;;;;;;8.93;2.20;;;17.60;99.90;;;;;;14827255;23;22310;-65
2021/10/11 13:20:00;;;;;;;8.27;2.60;;;18.10;99.90;;;;;;14847901;23;20562;-65
2021/10/11 13:25:47;;;;;;;9.68;2.58;;;18.60;99.50;;;;;;14857049;23;20103;-65
2021/10/11 14:33:25;;;;;;;24.80;7.72;;;18.80;95.90;;;;;;14733783;22;20024;-65
2021/10/11 15:58:33;;;;;;;7.70;2.63;;;17.90;99.40;;;;;;14847754;23;20028;-65
2021/10/11 16:10:24;;;;;;;12.27;3.17;;;17.90;99.40;;;;;;14856386;23;20026;-65
2021/10/11 16:16:11;;;;;;;7.60;2.85;;;17.80;99.70;;;;;;14813465;23;20158;-65
2021/10/11 16:22:00;;;;;;;7.28;2.55;;;17.80;99.90;;;;;;14856941;23;20406;-65
2021/10/11 16:27:47;;;;;;;15.25;3.80;;;17.50;99.90;;;;;;14856764;23;20047;-65
2021/10/11 16:33:34;;;;;;;12.27;4.18;;;17.50;99.90;;;;;;14856141;23;20024;-65
2021/10/11 16:39:22;;;;;;;17.95;5.30;;;17.30;99.90;;;;;;14814445;23;20026;-65
2021/10/11 16:45:10;;;;;;;16.10;5.53;;;17.10;99.90;;;;;;14856322;23;20103;-65
2021/10/11 16:50:57;;;;;;;9.25;3.55;;;17.20;99.90;;;;;;14855277;23;20050;-65
2021/10/11 16:56:45;;;;;;;14.30;3.58;;;17.10;99.90;;;;;;14853266;22;20020;-65
2021/10/11 17:02:32;;;;;;;70.03;37.50;;;17.00;99.90;;;;;;14826185;23;20028;-66
2021/10/11 17:08:19;;;;;;;22.00;6.43;;;16.90;99.90;;;;;;14853062;23;20091;-66
2021/10/11 17:14:07;;;;;;;11.50;4.13;;;16.70;99.90;;;;;;14854484;23;20110;-66
2021/10/11 17:19:54;;;;;;;13.82;3.88;;;16.60;99.90;;;;;;14855270;22;20048;-66
2021/10/11 17:25:41;;;;;;;14.95;3.60;;;16.50;99.90;;;;;;14856949;23;20111;-65
2021/10/11 17:31:30;;;;;;;12.50;3.70;;;16.30;99.90;;;;;;14854831;23;20109;-67
2021/10/11 17:37:17;;;;;;;13.68;3.63;;;16.20;99.90;;;;;;14854611;23;20111;-65
2021/10/11 17:43:04;;;;;;;12.32;4.28;;;16.10;99.90;;;;;;14854712;23;20469;-65
2021/10/11 17:48:53;;;;;;;15.27;5.05;;;16.00;99.90;;;;;;14855191;23;20611;-65
2021/10/11 17:54:39;;;;;;;19.65;7.22;;;15.80;99.90;;;;;;14854558;23;20020;-66
